createdAt,value
2023-09-17T00:01:24.963Z,17.00
2023-09-17T00:03:54.112Z,17.00
2023-09-17T00:06:22.385Z,16.90
2023-09-17T00:08:49.484Z,16.90
2023-09-17T00:11:18.871Z,16.80
2023-09-17T00:13:45.837Z,16.80
2023-09-17T00:16:13.098Z,16.70
2023-09-17T00:18:40.103Z,16.70
2023-09-17T00:21:07.953Z,16.70
2023-09-17T00:23:35.252Z,16.70
2023-09-17T00:26:03.342Z,16.70
2023-09-17T00:28:31.217Z,16.70
2023-09-17T00:30:58.201Z,16.70
2023-09-17T00:33:25.105Z,16.60
2023-09-17T00:35:52.086Z,16.50
2023-09-17T00:38:19.019Z,16.50
2023-09-17T00:40:45.974Z,16.50
2023-09-17T00:43:13.106Z,16.50
2023-09-17T00:45:42.770Z,16.40
2023-09-17T00:48:11.443Z,16.40
2023-09-17T00:50:40.946Z,16.30
2023-09-17T00:53:08.990Z,16.20
2023-09-17T00:55:36.472Z,16.20
2023-09-17T00:58:05.507Z,16.20
2023-09-17T01:00:38.295Z,16.30
2023-09-17T01:03:07.211Z,16.30
2023-09-17T01:05:53.455Z,16.30
2023-09-17T01:08:22.119Z,16.40
2023-09-17T01:10:50.425Z,16.30
2023-09-17T01:13:17.709Z,16.30
2023-09-17T01:15:44.760Z,16.20
2023-09-17T01:18:12.488Z,16.00
2023-09-17T01:21:02.312Z,15.90
2023-09-17T01:23:43.371Z,15.70
2023-09-17T01:26:26.198Z,15.70
2023-09-17T01:28:55.665Z,15.60
2023-09-17T01:31:26.012Z,15.70
2023-09-17T01:33:54.756Z,15.70
2023-09-17T01:36:37.209Z,15.70
2023-09-17T01:39:11.913Z,15.70
2023-09-17T01:41:40.267Z,15.80
2023-09-17T01:44:08.390Z,15.80
2023-09-17T01:46:37.319Z,15.60
2023-09-17T01:49:05.379Z,15.50
2023-09-17T01:51:32.823Z,15.50
2023-09-17T01:54:00.439Z,15.30
2023-09-17T01:56:28.145Z,15.30
2023-09-17T01:58:55.169Z,15.30
2023-09-17T02:01:23.209Z,15.30
2023-09-17T02:03:51.306Z,15.30
2023-09-17T02:06:18.469Z,15.40
2023-09-17T02:08:45.437Z,15.40
2023-09-17T02:11:12.355Z,15.40
2023-09-17T02:13:39.280Z,15.40
2023-09-17T02:16:06.371Z,15.40
2023-09-17T02:18:33.227Z,15.40
2023-09-17T02:21:00.190Z,15.40
2023-09-17T02:23:27.065Z,15.40
2023-09-17T02:25:53.942Z,15.40
2023-09-17T02:28:20.865Z,15.30
2023-09-17T02:30:48.676Z,15.30
2023-09-17T02:33:15.681Z,15.30
2023-09-17T02:35:42.515Z,15.30
2023-09-17T02:38:09.407Z,15.30
2023-09-17T02:40:36.332Z,15.30
2023-09-17T02:43:03.539Z,15.30
2023-09-17T02:45:30.492Z,15.20
2023-09-17T02:47:57.652Z,15.20
2023-09-17T02:50:24.603Z,15.20
2023-09-17T02:52:51.507Z,15.20
2023-09-17T02:55:19.594Z,15.20
2023-09-17T02:57:46.651Z,15.20
2023-09-17T03:00:14.954Z,15.20
2023-09-17T03:02:42.180Z,15.10
2023-09-17T03:05:12.170Z,15.10
2023-09-17T03:07:39.795Z,15.10
2023-09-17T03:10:12.355Z,15.10
2023-09-17T03:12:39.827Z,15.00
2023-09-17T03:15:08.268Z,15.00
2023-09-17T03:17:38.890Z,14.90
2023-09-17T03:20:15.474Z,14.90
2023-09-17T03:22:42.680Z,14.90
2023-09-17T03:25:09.805Z,14.80
2023-09-17T03:27:40.177Z,14.80
2023-09-17T03:30:07.878Z,14.80
2023-09-17T03:32:36.585Z,14.80
2023-09-17T03:35:07.656Z,14.80
2023-09-17T03:37:34.779Z,14.80
2023-09-17T03:40:13.109Z,14.70
2023-09-17T03:42:41.134Z,14.70
2023-09-17T03:45:10.968Z,14.60
2023-09-17T03:47:39.519Z,14.60
2023-09-17T03:50:07.536Z,14.60
2023-09-17T03:52:36.457Z,14.60
2023-09-17T03:55:07.151Z,14.60
2023-09-17T03:57:38.604Z,14.60
2023-09-17T04:00:08.113Z,14.60
2023-09-17T04:02:43.326Z,14.60
2023-09-17T04:05:13.807Z,14.60
2023-09-17T04:07:43.125Z,14.50
2023-09-17T04:10:10.316Z,14.50
2023-09-17T04:12:38.786Z,14.50
2023-09-17T04:15:14.371Z,14.50
2023-09-17T04:17:41.755Z,14.50
2023-09-17T04:20:12.428Z,14.50
2023-09-17T04:22:39.599Z,14.50
2023-09-17T04:25:06.584Z,14.50
2023-09-17T04:27:33.458Z,14.40
2023-09-17T04:30:00.270Z,14.40
2023-09-17T04:32:27.421Z,14.40
2023-09-17T04:34:55.202Z,14.40
2023-09-17T04:37:23.195Z,14.40
2023-09-17T04:39:50.794Z,14.30
2023-09-17T04:42:18.405Z,14.30
2023-09-17T04:44:45.851Z,14.30
2023-09-17T04:47:12.835Z,14.30
2023-09-17T04:49:39.755Z,14.30
2023-09-17T04:52:08.436Z,14.30
2023-09-17T04:54:35.288Z,14.30
2023-09-17T04:57:02.677Z,14.30
2023-09-17T04:59:30.457Z,14.40
2023-09-17T05:01:57.398Z,14.40
2023-09-17T05:04:25.599Z,14.40
2023-09-17T05:06:52.601Z,14.40
2023-09-17T05:09:20.491Z,14.40
2023-09-17T05:11:47.482Z,14.40
2023-09-17T05:14:14.445Z,14.40
2023-09-17T05:16:41.933Z,14.40
2023-09-17T05:19:09.105Z,14.50
2023-09-17T05:21:35.958Z,14.50
2023-09-17T05:24:02.807Z,14.50
2023-09-17T05:26:29.649Z,14.60
2023-09-17T05:28:56.569Z,14.60
2023-09-17T05:31:23.652Z,14.60
2023-09-17T05:33:51.511Z,14.60
2023-09-17T05:36:18.712Z,14.60
2023-09-17T05:38:45.707Z,14.70
2023-09-17T05:41:13.416Z,14.70
2023-09-17T05:43:41.453Z,14.80
2023-09-17T05:46:08.643Z,14.80
2023-09-17T05:48:36.034Z,14.90
2023-09-17T05:51:04.801Z,14.90
2023-09-17T05:53:32.444Z,15.00
2023-09-17T05:55:59.503Z,15.10
2023-09-17T05:58:26.477Z,15.20
2023-09-17T06:00:54.817Z,15.40
2023-09-17T06:03:22.388Z,15.70
2023-09-17T06:05:50.732Z,15.90
2023-09-17T06:08:17.819Z,16.10
2023-09-17T06:10:44.746Z,16.40
2023-09-17T06:13:11.907Z,16.60
2023-09-17T06:15:38.903Z,16.80
2023-09-17T06:18:06.140Z,17.10
2023-09-17T06:20:33.313Z,17.40
2023-09-17T06:23:00.586Z,17.60
2023-09-17T06:25:28.300Z,17.80
2023-09-17T06:27:55.650Z,18.00
2023-09-17T06:30:23.337Z,18.30
2023-09-17T06:32:51.083Z,18.40
2023-09-17T06:35:18.121Z,18.50
2023-09-17T06:37:44.982Z,18.80
2023-09-17T06:40:15.208Z,19.00
2023-09-17T06:42:42.166Z,19.20
2023-09-17T06:45:09.529Z,19.30
2023-09-17T06:47:36.731Z,19.50
2023-09-17T06:50:03.784Z,19.50
2023-09-17T06:52:30.656Z,19.60
2023-09-17T06:54:57.606Z,19.70
2023-09-17T06:57:24.731Z,19.70
2023-09-17T06:59:51.623Z,19.90
2023-09-17T07:02:22.472Z,20.10
2023-09-17T07:04:49.563Z,20.20
2023-09-17T07:07:16.546Z,20.30
2023-09-17T07:09:49.180Z,20.50
2023-09-17T07:12:17.783Z,20.60
2023-09-17T07:14:44.713Z,20.80
2023-09-17T07:17:11.780Z,20.90
2023-09-17T07:19:39.470Z,21.00
2023-09-17T07:22:13.161Z,21.10
2023-09-17T07:24:40.787Z,21.20
2023-09-17T07:27:07.819Z,21.40
2023-09-17T07:29:34.676Z,21.40
2023-09-17T07:32:01.810Z,21.50
2023-09-17T07:34:28.771Z,21.60
2023-09-17T07:36:55.743Z,21.60
2023-09-17T07:39:22.840Z,21.70
2023-09-17T07:41:49.717Z,22.00
2023-09-17T07:44:16.705Z,22.20
2023-09-17T07:46:43.636Z,22.40
2023-09-17T07:49:10.610Z,22.60
2023-09-17T07:51:37.505Z,22.70
2023-09-17T07:54:04.526Z,22.70
2023-09-17T07:56:31.554Z,22.70
2023-09-17T07:58:59.385Z,23.10
2023-09-17T08:01:26.283Z,23.30
2023-09-17T08:03:53.416Z,23.70
2023-09-17T08:06:20.568Z,23.80
2023-09-17T08:08:48.724Z,23.80
2023-09-17T08:11:16.987Z,23.80
2023-09-17T08:13:43.931Z,24.00
2023-09-17T08:16:11.200Z,24.00
2023-09-17T08:18:38.491Z,24.20
2023-09-17T08:21:05.583Z,24.30
2023-09-17T08:23:32.548Z,24.40
2023-09-17T08:26:00.422Z,24.70
2023-09-17T08:28:27.427Z,25.10
2023-09-17T08:30:54.467Z,25.40
2023-09-17T08:33:21.463Z,25.50
2023-09-17T08:35:48.421Z,25.20
2023-09-17T08:38:15.552Z,25.20
2023-09-17T08:40:42.755Z,25.40
2023-09-17T08:43:14.425Z,25.60
2023-09-17T08:45:42.931Z,25.70
2023-09-17T08:48:10.260Z,25.70
2023-09-17T08:50:38.312Z,25.60
2023-09-17T08:53:08.612Z,25.60
2023-09-17T08:55:36.133Z,25.80
2023-09-17T08:58:23.116Z,25.70
2023-09-17T09:00:57.001Z,25.90
2023-09-17T09:03:26.308Z,26.00
2023-09-17T09:05:56.648Z,26.30
2023-09-17T09:08:25.969Z,26.70
2023-09-17T09:10:53.166Z,26.60
2023-09-17T09:13:22.223Z,26.60
2023-09-17T09:15:49.231Z,26.80
2023-09-17T09:18:16.524Z,26.60
2023-09-17T09:20:43.695Z,26.80
2023-09-17T09:23:10.655Z,27.00
2023-09-17T09:25:37.655Z,27.30
2023-09-17T09:28:05.478Z,27.40
2023-09-17T09:30:32.536Z,27.30
2023-09-17T09:32:59.848Z,27.00
2023-09-17T09:35:26.952Z,27.20
2023-09-17T09:37:57.218Z,27.70
2023-09-17T09:40:25.665Z,28.10
2023-09-17T09:42:52.682Z,28.40
2023-09-17T09:45:19.910Z,28.40
2023-09-17T09:47:51.064Z,28.50
2023-09-17T09:50:28.917Z,28.90
2023-09-17T09:52:56.377Z,29.30
2023-09-17T09:55:28.801Z,29.20
2023-09-17T09:57:56.789Z,29.40
2023-09-17T10:00:28.033Z,29.50
2023-09-17T10:02:55.948Z,29.20
2023-09-17T10:05:38.428Z,28.90
2023-09-17T10:08:06.053Z,28.90
2023-09-17T10:10:33.613Z,28.90
2023-09-17T10:13:06.633Z,29.30
2023-09-17T10:15:35.978Z,28.90
2023-09-17T10:18:03.539Z,28.50
2023-09-17T10:20:31.458Z,28.60
2023-09-17T10:23:00.330Z,29.20
2023-09-17T10:25:29.642Z,29.40
2023-09-17T10:27:57.830Z,29.50
2023-09-17T10:30:25.850Z,29.30
2023-09-17T10:32:53.458Z,29.20
2023-09-17T10:35:20.448Z,29.40
2023-09-17T10:37:48.434Z,29.50
2023-09-17T10:40:16.705Z,30.20
2023-09-17T10:42:45.694Z,30.20
2023-09-17T10:45:13.304Z,30.30
2023-09-17T10:47:42.006Z,30.40
2023-09-17T10:50:18.415Z,30.90
2023-09-17T10:52:45.688Z,30.30
2023-09-17T10:55:13.085Z,29.80
2023-09-17T10:57:48.364Z,29.90
2023-09-17T11:00:19.714Z,30.50
2023-09-17T11:02:53.152Z,31.10
2023-09-17T11:05:24.065Z,31.10
2023-09-17T11:07:53.728Z,31.00
2023-09-17T11:10:31.217Z,30.20
2023-09-17T11:13:00.425Z,30.30
2023-09-17T11:15:27.663Z,31.00
2023-09-17T11:18:03.063Z,30.60
2023-09-17T11:20:30.371Z,30.80
2023-09-17T11:22:58.221Z,31.10
2023-09-17T11:25:39.565Z,31.30
2023-09-17T11:28:14.463Z,30.60
2023-09-17T11:31:03.875Z,29.50
2023-09-17T11:33:31.730Z,29.60
2023-09-17T11:36:01.623Z,29.90
2023-09-17T11:38:30.744Z,29.90
2023-09-17T11:41:09.318Z,30.00
2023-09-17T11:43:39.045Z,30.10
2023-09-17T11:46:11.253Z,30.10
2023-09-17T11:48:39.124Z,30.10
2023-09-17T11:51:25.876Z,29.90
2023-09-17T11:54:10.473Z,30.00
2023-09-17T11:56:47.872Z,29.90
2023-09-17T11:59:17.319Z,29.60
2023-09-17T12:01:54.147Z,29.40
2023-09-17T12:04:30.382Z,28.80
2023-09-17T12:06:58.680Z,28.50
2023-09-17T12:10:01.944Z,28.10
2023-09-17T12:12:33.151Z,27.60
2023-09-17T12:15:00.301Z,27.40
2023-09-17T12:17:28.166Z,27.30
2023-09-17T12:21:03.286Z,27.30
2023-09-17T12:24:05.997Z,27.20
2023-09-17T12:27:00.450Z,27.00
2023-09-17T12:29:27.247Z,27.00
2023-09-17T12:31:54.660Z,27.10
2023-09-17T12:34:21.482Z,27.10
2023-09-17T12:36:48.411Z,27.10
2023-09-17T12:39:16.339Z,27.00
2023-09-17T12:41:44.096Z,27.00
2023-09-17T12:44:12.100Z,27.20
2023-09-17T12:46:40.185Z,27.30
2023-09-17T12:49:08.495Z,27.20
2023-09-17T12:51:38.400Z,27.20
2023-09-17T12:54:06.991Z,27.30
2023-09-17T12:56:34.279Z,27.10
2023-09-17T12:59:02.124Z,27.10
2023-09-17T13:01:31.712Z,27.00
2023-09-17T13:04:03.000Z,27.10
2023-09-17T13:06:36.516Z,27.20
2023-09-17T13:09:03.819Z,27.10
2023-09-17T13:11:31.323Z,26.80
2023-09-17T13:13:59.388Z,26.60
2023-09-17T13:16:26.415Z,26.80
2023-09-17T13:18:53.595Z,27.00
2023-09-17T13:21:21.347Z,27.30
2023-09-17T13:23:49.117Z,27.30
2023-09-17T13:26:16.410Z,27.30
2023-09-17T13:28:43.414Z,27.20
2023-09-17T13:31:12.324Z,27.20
2023-09-17T13:33:40.124Z,27.20
2023-09-17T13:36:11.395Z,27.20
2023-09-17T13:38:43.031Z,27.30
2023-09-17T13:41:10.386Z,27.10
2023-09-17T13:43:38.270Z,26.80
2023-09-17T13:46:05.267Z,26.60
2023-09-17T13:48:32.412Z,26.80
2023-09-17T13:50:59.353Z,27.00
2023-09-17T13:53:26.399Z,27.10
2023-09-17T13:55:53.420Z,27.20
2023-09-17T13:58:20.445Z,27.20
2023-09-17T14:00:47.266Z,27.30
2023-09-17T14:03:15.529Z,27.40
2023-09-17T14:05:43.969Z,27.50
2023-09-17T14:08:11.421Z,27.50
2023-09-17T14:10:38.602Z,27.30
2023-09-17T14:13:05.943Z,27.30
2023-09-17T14:15:37.550Z,27.30
2023-09-17T14:18:04.583Z,27.30
2023-09-17T14:20:31.602Z,27.30
2023-09-17T14:22:58.622Z,27.30
2023-09-17T14:25:25.477Z,27.20
2023-09-17T14:27:53.102Z,27.10
2023-09-17T14:30:30.298Z,27.10
2023-09-17T14:32:59.172Z,27.00
2023-09-17T14:35:27.606Z,26.80
2023-09-17T14:37:55.815Z,26.70
2023-09-17T14:40:22.778Z,26.60
2023-09-17T14:42:49.785Z,26.70
2023-09-17T14:45:16.867Z,26.70
2023-09-17T14:47:44.612Z,26.70
2023-09-17T14:50:12.925Z,26.70
2023-09-17T14:52:39.992Z,26.60
2023-09-17T14:55:07.392Z,26.50
2023-09-17T14:57:38.098Z,26.40
2023-09-17T15:00:06.207Z,26.40
2023-09-17T15:02:34.418Z,26.40
2023-09-17T15:05:02.102Z,26.40
2023-09-17T15:07:29.082Z,26.40
2023-09-17T15:09:55.918Z,26.40
2023-09-17T15:12:23.162Z,26.30
2023-09-17T15:14:50.388Z,26.30
2023-09-17T15:17:17.392Z,26.30
2023-09-17T15:19:44.286Z,26.40
2023-09-17T15:22:11.356Z,26.40
2023-09-17T15:24:38.621Z,26.40
2023-09-17T15:27:05.589Z,26.50
2023-09-17T15:29:32.836Z,26.60
2023-09-17T15:32:01.100Z,26.50
2023-09-17T15:34:29.210Z,26.30
2023-09-17T15:36:56.254Z,26.20
2023-09-17T15:39:25.715Z,26.10
2023-09-17T15:41:53.637Z,26.00
2023-09-17T15:44:22.780Z,25.80
2023-09-17T15:46:49.901Z,25.80
2023-09-17T15:49:16.986Z,25.70
2023-09-17T15:51:43.869Z,25.70
2023-09-17T15:54:10.840Z,25.70
2023-09-17T15:56:37.807Z,25.60
2023-09-17T15:59:05.119Z,25.50
2023-09-17T16:01:32.151Z,25.40
2023-09-17T16:03:59.288Z,25.40
2023-09-17T16:06:26.397Z,25.40
2023-09-17T16:08:54.216Z,25.30
2023-09-17T16:11:21.592Z,25.30
2023-09-17T16:13:48.707Z,25.30
2023-09-17T16:16:15.766Z,25.20
2023-09-17T16:18:43.218Z,25.10
2023-09-17T16:21:11.074Z,25.00
2023-09-17T16:23:38.022Z,25.00
2023-09-17T16:26:05.035Z,24.90
2023-09-17T16:28:32.218Z,24.90
2023-09-17T16:30:59.040Z,24.80
2023-09-17T16:33:26.064Z,24.70
2023-09-17T16:35:53.376Z,24.70
2023-09-17T16:38:20.941Z,24.60
2023-09-17T16:40:48.372Z,24.50
2023-09-17T16:43:19.153Z,24.40
2023-09-17T16:45:46.132Z,24.30
2023-09-17T16:48:13.229Z,24.20
2023-09-17T16:50:40.182Z,24.10
2023-09-17T16:53:08.037Z,24.00
2023-09-17T16:55:37.270Z,23.90
2023-09-17T16:58:04.884Z,23.90
2023-09-17T17:00:32.296Z,23.80
2023-09-17T17:02:59.644Z,23.70
2023-09-17T17:05:26.814Z,23.60
2023-09-17T17:07:53.800Z,23.50
2023-09-17T17:10:21.228Z,23.40
2023-09-17T17:12:48.258Z,23.30
2023-09-17T17:15:15.106Z,23.20
2023-09-17T17:17:42.133Z,23.10
2023-09-17T17:20:09.619Z,23.00
2023-09-17T17:22:47.132Z,22.90
2023-09-17T17:25:14.228Z,22.80
2023-09-17T17:27:41.701Z,22.70
2023-09-17T17:30:11.433Z,22.60
2023-09-17T17:32:40.988Z,22.50
2023-09-17T17:35:08.997Z,22.40
2023-09-17T17:37:36.007Z,22.30
2023-09-17T17:40:02.854Z,22.30
2023-09-17T17:42:29.788Z,22.10
2023-09-17T17:44:57.147Z,22.10
2023-09-17T17:47:25.152Z,22.00
2023-09-17T17:49:54.487Z,21.90
2023-09-17T17:52:22.105Z,21.80
2023-09-17T17:54:49.702Z,21.70
2023-09-17T17:57:18.666Z,21.70
2023-09-17T17:59:46.413Z,21.60
2023-09-17T18:02:14.546Z,21.60
2023-09-17T18:04:41.867Z,21.40
2023-09-17T18:07:09.006Z,21.40
2023-09-17T18:09:35.855Z,21.20
2023-09-17T18:12:03.833Z,21.20
2023-09-17T18:14:31.313Z,21.10
2023-09-17T18:16:58.549Z,21.10
2023-09-17T18:19:25.462Z,21.00
2023-09-17T18:21:52.410Z,20.80
2023-09-17T18:24:21.926Z,20.70
2023-09-17T18:26:48.746Z,20.70
2023-09-17T18:29:15.702Z,20.60
2023-09-17T18:31:42.595Z,20.60
2023-09-17T18:34:09.383Z,20.50
2023-09-17T18:36:36.279Z,20.50
2023-09-17T18:39:03.090Z,20.40
2023-09-17T18:41:30.025Z,20.30
2023-09-17T18:43:56.943Z,20.30
2023-09-17T18:46:25.446Z,20.20
2023-09-17T18:48:52.308Z,20.20
2023-09-17T18:51:21.665Z,20.10
2023-09-17T18:53:48.771Z,20.00
2023-09-17T18:56:16.177Z,20.00
2023-09-17T18:58:43.070Z,20.00
2023-09-17T19:01:10.700Z,19.90
2023-09-17T19:03:37.699Z,19.90
2023-09-17T19:06:04.749Z,19.80
2023-09-17T19:08:31.858Z,19.80
2023-09-17T19:10:58.906Z,19.70
2023-09-17T19:13:25.862Z,19.70
2023-09-17T19:15:54.894Z,19.60
2023-09-17T19:18:21.808Z,19.60
2023-09-17T19:20:49.784Z,19.50
2023-09-17T19:23:16.903Z,19.50
2023-09-17T19:25:43.831Z,19.50
2023-09-17T19:28:10.805Z,19.50
2023-09-17T19:30:37.783Z,19.40
2023-09-17T19:33:05.331Z,19.40
2023-09-17T19:35:32.191Z,19.40
2023-09-17T19:37:59.158Z,19.30
2023-09-17T19:40:26.125Z,19.20
2023-09-17T19:42:53.004Z,19.10
2023-09-17T19:45:19.836Z,19.00
2023-09-17T19:47:46.780Z,19.00
2023-09-17T19:50:15.723Z,18.90
2023-09-17T19:52:42.712Z,18.90
2023-09-17T19:55:09.572Z,18.80
2023-09-17T19:57:36.963Z,18.80
2023-09-17T20:00:11.720Z,18.70
2023-09-17T20:02:38.933Z,18.70
2023-09-17T20:05:09.470Z,18.60
2023-09-17T20:07:38.512Z,18.50
2023-09-17T20:10:14.785Z,18.50
2023-09-17T20:12:43.263Z,18.50
2023-09-17T20:15:10.365Z,18.40
2023-09-17T20:17:37.287Z,18.40
2023-09-17T20:20:06.665Z,18.30
2023-09-17T20:22:42.473Z,18.30
2023-09-17T20:25:10.354Z,18.30
2023-09-17T20:27:37.570Z,18.30
2023-09-17T20:30:13.473Z,18.30
2023-09-17T20:32:40.638Z,18.30
2023-09-17T20:35:07.900Z,18.20
2023-09-17T20:37:34.719Z,18.20
2023-09-17T20:40:02.934Z,18.20
2023-09-17T20:42:29.857Z,18.10
2023-09-17T20:44:56.992Z,18.10
2023-09-17T20:47:29.041Z,18.00
2023-09-17T20:49:56.112Z,18.00
2023-09-17T20:52:22.963Z,18.00
2023-09-17T20:54:49.889Z,18.00
2023-09-17T20:57:19.516Z,17.90
2023-09-17T20:59:46.454Z,17.90
2023-09-17T21:02:13.563Z,17.90
2023-09-17T21:04:45.438Z,17.80
2023-09-17T21:07:12.275Z,17.80
2023-09-17T21:09:39.360Z,17.80
2023-09-17T21:12:06.558Z,17.70
2023-09-17T21:14:33.397Z,17.60
2023-09-17T21:17:00.538Z,17.60
2023-09-17T21:19:27.422Z,17.50
2023-09-17T21:21:54.238Z,17.50
2023-09-17T21:24:21.438Z,17.50
2023-09-17T21:26:48.326Z,17.50
2023-09-17T21:29:15.162Z,17.40
2023-09-17T21:31:42.334Z,17.40
2023-09-17T21:34:09.189Z,17.30
2023-09-17T21:36:36.030Z,17.30
2023-09-17T21:39:03.760Z,17.30
2023-09-17T21:41:31.946Z,17.30
2023-09-17T21:44:00.086Z,17.30
2023-09-17T21:46:30.319Z,17.20
2023-09-17T21:49:00.271Z,17.20
2023-09-17T21:51:27.140Z,17.10
2023-09-17T21:53:54.012Z,17.10
2023-09-17T21:56:21.345Z,17.10
2023-09-17T21:58:48.213Z,17.10
2023-09-17T22:01:15.148Z,17.10
2023-09-17T22:03:42.314Z,17.00
2023-09-17T22:06:09.416Z,17.00
2023-09-17T22:08:36.357Z,16.90
2023-09-17T22:11:07.105Z,16.90
2023-09-17T22:13:34.853Z,16.90
2023-09-17T22:16:01.842Z,16.80
2023-09-17T22:18:28.767Z,16.90
2023-09-17T22:21:05.612Z,16.80
2023-09-17T22:23:32.552Z,16.80
2023-09-17T22:26:00.334Z,16.80
2023-09-17T22:28:28.093Z,16.80
2023-09-17T22:30:54.992Z,16.80
2023-09-17T22:33:22.002Z,16.80
2023-09-17T22:35:49.398Z,16.80
2023-09-17T22:38:16.394Z,16.70
2023-09-17T22:40:43.302Z,16.70
2023-09-17T22:43:10.378Z,16.60
2023-09-17T22:45:40.474Z,16.60
2023-09-17T22:48:07.459Z,16.60
2023-09-17T22:50:34.391Z,16.50
2023-09-17T22:53:01.251Z,16.50
2023-09-17T22:55:28.150Z,16.40
2023-09-17T22:57:54.965Z,16.40
2023-09-17T23:00:22.480Z,16.40
2023-09-17T23:02:49.587Z,16.40
2023-09-17T23:05:18.320Z,16.40
2023-09-17T23:07:45.287Z,16.40
2023-09-17T23:10:12.265Z,16.40
2023-09-17T23:12:39.118Z,16.40
2023-09-17T23:15:06.305Z,16.30
2023-09-17T23:17:33.179Z,16.30
2023-09-17T23:20:00.133Z,16.30
2023-09-17T23:22:27.763Z,16.30
2023-09-17T23:24:55.178Z,16.30
2023-09-17T23:27:22.298Z,16.30
2023-09-17T23:29:50.830Z,16.20
2023-09-17T23:32:18.131Z,16.20
2023-09-17T23:34:45.192Z,16.20
2023-09-17T23:37:13.138Z,16.20
2023-09-17T23:39:44.524Z,16.20
2023-09-17T23:42:13.052Z,16.10
2023-09-17T23:44:39.927Z,16.10
2023-09-17T23:47:06.941Z,16.10
2023-09-17T23:49:34.054Z,16.10
2023-09-17T23:52:00.951Z,16.10
2023-09-17T23:54:27.793Z,16.10
2023-09-17T23:56:54.644Z,16.10
2023-09-17T23:59:22.763Z,16.10
